Aeroporto :
LOGIN :

Iscrizione | Disclaimer

   EN    FR    IT 

 










Sommario :    VFR   VFR Marginale   IFR   IFR Intensivo   IFR Molto Intensivo
Visibilità : 
Base nubi : 
>= 8 km
>= 3000ft
5 / 8 km
1000 / 3000 ft
1500m / 5 km
500 / 1000 ft
800 / 1500m
200 / 500 ft
< 800m
< 200 ft
Simboli :   Temporali  Nebbia  Neve Forte  Precipitazioni Forti  Vento > 20 kt
SIGMETs :   Varie  Temporali  Ghiacco  Turbolenza  Onda orograficha  Ceneri Vulcaniche






- Altitudine del aeroporto : 100 ft


EBDT - Schaffen

ULTIMO METAR :
  • 091025Z 19008KT 9999 -RA BKN011 BKN016 03/02 Q1004 GRN WHT TEMPO GRN

METARs OBSOLETI :
  • 090955Z 20007KT 9000 -RA BKN011 BKN020 03/02 Q1004 GRN WHT TEMPO GRN
  • 090925Z 20006KT 9000 -RA BKN011 BKN020 03/01 Q1004 GRN WHT TEMPO GRN
  • 090855Z 19006KT 9999 -RA SCT011 BKN020 02/01 Q1004 GRN WHT TEMPO GRN
  • 090825Z 18006KT 9999 SCT012 BKN020 02/01 Q1004 GRN WHT TEMPO GRN
  • 090806Z 18007KT 9999 SCT014 BKN022 02/00 Q1003 GRN WHT TEMPO GRN

TAF TAF EBDT
Valido dal 09 a 10 ore il 09 a 19 ore UTC


090841Z 0910/0919 19010KT 9999 FEW015 SCT022 BKN030
TEMPO 0910/0919 20012KT 6000 -RA SCT014 BKN020



MetMap, La meteo Aeronautica in un colpo d'occhio ! - Copyright ORBIFLY Dicembre 2007 - Disclaimer

ORBIFLY MET'MAP TEAM :

Programmazione e sviluppo : Alexandra Zaïnal
Concezione : Baudouin d'Aumeries
Aiuto per la programmazione : Marc-Olivier Méhu
Supporto tecnico e logistico : Manuel Goepfert
Aiuto per la traduzione : Arnaldo La Scala

Contatto : metmap@orbifly.com




FONTI E CREDITI :

   NOAA